sensor_id;sensor_type;location;lat;lon;timestamp;P1;durP1;ratioP1;P2;durP2;ratioP2
21860;SDS011;11095;48.066;8.540;2024-03-02T00:02:05;25.95;;;15.15;;
21860;SDS011;11095;48.066;8.540;2024-03-02T00:04:31;25.92;;;16.13;;
21860;SDS011;11095;48.066;8.540;2024-03-02T00:06:57;24.77;;;16.08;;
21860;SDS011;11095;48.066;8.540;2024-03-02T00:09:23;24.65;;;15.32;;
21860;SDS011;11095;48.066;8.540;2024-03-02T00:11:48;25.35;;;15.15;;
21860;SDS011;11095;48.066;8.540;2024-03-02T00:14:14;23.13;;;14.73;;
21860;SDS011;11095;48.066;8.540;2024-03-02T00:16:40;26.55;;;16.10;;
21860;SDS011;11095;48.066;8.540;2024-03-02T00:19:06;25.25;;;15.48;;
21860;SDS011;11095;48.066;8.540;2024-03-02T00:21:33;23.83;;;15.00;;
21860;SDS011;11095;48.066;8.540;2024-03-02T00:24:00;26.08;;;16.33;;
21860;SDS011;11095;48.066;8.540;2024-03-02T00:26:31;26.02;;;15.80;;
21860;SDS011;11095;48.066;8.540;2024-03-02T00:28:57;24.83;;;15.60;;
21860;SDS011;11095;48.066;8.540;2024-03-02T00:31:25;27.08;;;16.17;;
21860;SDS011;11095;48.066;8.540;2024-03-02T00:33:51;26.65;;;15.82;;
21860;SDS011;11095;48.066;8.540;2024-03-02T00:36:21;27.00;;;16.13;;
21860;SDS011;11095;48.066;8.540;2024-03-02T00:38:49;25.63;;;15.75;;
21860;SDS011;11095;48.066;8.540;2024-03-02T00:41:24;27.15;;;15.88;;
21860;SDS011;11095;48.066;8.540;2024-03-02T00:44:01;25.10;;;15.50;;
21860;SDS011;11095;48.066;8.540;2024-03-02T00:46:27;25.08;;;15.32;;
21860;SDS011;11095;48.066;8.540;2024-03-02T00:48:57;24.23;;;15.27;;
21860;SDS011;11095;48.066;8.540;2024-03-02T00:51:25;24.77;;;15.02;;
21860;SDS011;11095;48.066;8.540;2024-03-02T00:53:52;24.02;;;15.15;;
21860;SDS011;11095;48.066;8.540;2024-03-02T00:56:21;24.38;;;14.65;;
21860;SDS011;11095;48.066;8.540;2024-03-02T00:58:47;24.00;;;15.13;;
21860;SDS011;11095;48.066;8.540;2024-03-02T01:01:13;26.13;;;15.43;;
21860;SDS011;11095;48.066;8.540;2024-03-02T01:03:39;27.95;;;16.00;;
21860;SDS011;11095;48.066;8.540;2024-03-02T01:06:06;28.88;;;16.27;;
21860;SDS011;11095;48.066;8.540;2024-03-02T01:08:32;27.45;;;16.15;;
21860;SDS011;11095;48.066;8.540;2024-03-02T01:10:58;30.00;;;17.05;;
21860;SDS011;11095;48.066;8.540;2024-03-02T01:13:24;29.52;;;16.52;;
21860;SDS011;11095;48.066;8.540;2024-03-02T01:15:50;30.50;;;16.38;;
21860;SDS011;11095;48.066;8.540;2024-03-02T01:18:15;30.65;;;16.65;;
21860;SDS011;11095;48.066;8.540;2024-03-02T01:20:41;31.08;;;17.33;;
21860;SDS011;11095;48.066;8.540;2024-03-02T01:23:06;31.33;;;17.20;;
21860;SDS011;11095;48.066;8.540;2024-03-02T01:25:32;32.75;;;17.52;;
21860;SDS011;11095;48.066;8.540;2024-03-02T01:27:58;33.90;;;18.20;;
21860;SDS011;11095;48.066;8.540;2024-03-02T01:30:23;33.88;;;18.40;;
21860;SDS011;11095;48.066;8.540;2024-03-02T01:32:49;34.53;;;18.48;;
21860;SDS011;11095;48.066;8.540;2024-03-02T01:35:14;35.45;;;18.40;;
21860;SDS011;11095;48.066;8.540;2024-03-02T01:37:40;36.03;;;18.52;;
21860;SDS011;11095;48.066;8.540;2024-03-02T01:40:06;35.30;;;18.25;;
21860;SDS011;11095;48.066;8.540;2024-03-02T01:42:37;37.75;;;19.02;;
21860;SDS011;11095;48.066;8.540;2024-03-02T01:47:32;41.40;;;20.35;;
21860;SDS011;11095;48.066;8.540;2024-03-02T01:49:58;34.20;;;18.15;;
21860;SDS011;11095;48.066;8.540;2024-03-02T01:52:25;38.15;;;19.75;;
21860;SDS011;11095;48.066;8.540;2024-03-02T01:54:50;38.38;;;19.50;;
21860;SDS011;11095;48.066;8.540;2024-03-02T01:57:16;39.53;;;20.05;;
21860;SDS011;11095;48.066;8.540;2024-03-02T01:59:42;39.30;;;19.83;;
21860;SDS011;11095;48.066;8.540;2024-03-02T02:02:09;41.75;;;21.02;;
21860;SDS011;11095;48.066;8.540;2024-03-02T02:04:35;43.13;;;20.63;;
21860;SDS011;11095;48.066;8.540;2024-03-02T02:07:00;42.05;;;20.60;;
21860;SDS011;11095;48.066;8.540;2024-03-02T02:09:26;43.42;;;20.35;;
21860;SDS011;11095;48.066;8.540;2024-03-02T02:11:51;43.55;;;20.52;;
21860;SDS011;11095;48.066;8.540;2024-03-02T02:14:17;39.38;;;19.70;;
21860;SDS011;11095;48.066;8.540;2024-03-02T02:16:43;39.88;;;19.70;;
21860;SDS011;11095;48.066;8.540;2024-03-02T02:19:09;37.40;;;19.77;;
21860;SDS011;11095;48.066;8.540;2024-03-02T02:21:35;39.25;;;19.67;;
21860;SDS011;11095;48.066;8.540;2024-03-02T02:24:01;40.03;;;19.40;;
21860;SDS011;11095;48.066;8.540;2024-03-02T02:26:28;41.45;;;20.70;;
21860;SDS011;11095;48.066;8.540;2024-03-02T02:28:54;38.63;;;20.00;;
21860;SDS011;11095;48.066;8.540;2024-03-02T02:31:20;40.35;;;20.13;;
21860;SDS011;11095;48.066;8.540;2024-03-02T02:33:45;40.47;;;19.95;;
21860;SDS011;11095;48.066;8.540;2024-03-02T02:36:11;40.40;;;20.50;;
21860;SDS011;11095;48.066;8.540;2024-03-02T02:38:40;40.72;;;20.70;;
21860;SDS011;11095;48.066;8.540;2024-03-02T02:41:09;40.03;;;19.58;;
21860;SDS011;11095;48.066;8.540;2024-03-02T02:43:34;38.33;;;19.50;;
21860;SDS011;11095;48.066;8.540;2024-03-02T02:46:00;38.33;;;20.02;;
21860;SDS011;11095;48.066;8.540;2024-03-02T02:48:25;37.90;;;18.85;;
21860;SDS011;11095;48.066;8.540;2024-03-02T02:50:51;36.75;;;18.77;;
21860;SDS011;11095;48.066;8.540;2024-03-02T02:53:16;34.47;;;17.55;;
21860;SDS011;11095;48.066;8.540;2024-03-02T02:55:42;36.88;;;18.52;;
21860;SDS011;11095;48.066;8.540;2024-03-02T02:58:11;36.35;;;19.00;;
21860;SDS011;11095;48.066;8.540;2024-03-02T03:00:37;33.97;;;18.27;;
21860;SDS011;11095;48.066;8.540;2024-03-02T03:03:03;35.63;;;18.30;;
21860;SDS011;11095;48.066;8.540;2024-03-02T03:05:29;35.80;;;18.08;;
21860;SDS011;11095;48.066;8.540;2024-03-02T03:07:54;34.75;;;17.88;;
21860;SDS011;11095;48.066;8.540;2024-03-02T03:10:20;35.75;;;18.83;;
21860;SDS011;11095;48.066;8.540;2024-03-02T03:12:48;40.20;;;18.90;;
21860;SDS011;11095;48.066;8.540;2024-03-02T03:15:14;37.00;;;18.67;;
21860;SDS011;11095;48.066;8.540;2024-03-02T03:17:41;39.83;;;18.92;;
21860;SDS011;11095;48.066;8.540;2024-03-02T03:20:07;37.53;;;18.55;;
21860;SDS011;11095;48.066;8.540;2024-03-02T03:22:36;39.65;;;19.05;;
21860;SDS011;11095;48.066;8.540;2024-03-02T03:25:05;38.33;;;18.52;;
21860;SDS011;11095;48.066;8.540;2024-03-02T03:27:33;38.65;;;19.30;;
21860;SDS011;11095;48.066;8.540;2024-03-02T03:29:58;38.80;;;19.77;;
21860;SDS011;11095;48.066;8.540;2024-03-02T03:32:24;40.40;;;20.30;;
21860;SDS011;11095;48.066;8.540;2024-03-02T03:34:49;36.78;;;18.75;;
21860;SDS011;11095;48.066;8.540;2024-03-02T03:37:15;39.20;;;19.40;;
21860;SDS011;11095;48.066;8.540;2024-03-02T03:39:41;39.55;;;19.85;;
21860;SDS011;11095;48.066;8.540;2024-03-02T03:42:06;38.65;;;20.20;;
21860;SDS011;11095;48.066;8.540;2024-03-02T03:44:32;40.03;;;20.48;;
21860;SDS011;11095;48.066;8.540;2024-03-02T03:46:58;38.03;;;19.70;;
21860;SDS011;11095;48.066;8.540;2024-03-02T03:49:24;39.80;;;19.60;;
21860;SDS011;11095;48.066;8.540;2024-03-02T03:51:49;37.45;;;18.83;;
21860;SDS011;11095;48.066;8.540;2024-03-02T03:54:15;40.78;;;20.08;;
21860;SDS011;11095;48.066;8.540;2024-03-02T03:56:40;38.63;;;19.58;;
21860;SDS011;11095;48.066;8.540;2024-03-02T03:59:06;34.90;;;18.77;;
21860;SDS011;11095;48.066;8.540;2024-03-02T04:01:31;38.17;;;19.88;;
21860;SDS011;11095;48.066;8.540;2024-03-02T04:03:57;38.05;;;19.52;;
21860;SDS011;11095;48.066;8.540;2024-03-02T04:06:23;38.75;;;20.02;;
21860;SDS011;11095;48.066;8.540;2024-03-02T04:08:49;37.17;;;19.63;;
21860;SDS011;11095;48.066;8.540;2024-03-02T04:11:14;34.33;;;18.58;;
21860;SDS011;11095;48.066;8.540;2024-03-02T04:13:40;38.90;;;18.63;;
21860;SDS011;11095;48.066;8.540;2024-03-02T04:16:05;35.03;;;18.30;;
21860;SDS011;11095;48.066;8.540;2024-03-02T04:18:31;35.30;;;18.70;;
21860;SDS011;11095;48.066;8.540;2024-03-02T04:21:00;39.20;;;20.52;;
21860;SDS011;11095;48.066;8.540;2024-03-02T04:23:26;34.25;;;18.17;;
21860;SDS011;11095;48.066;8.540;2024-03-02T04:25:51;34.10;;;18.70;;
21860;SDS011;11095;48.066;8.540;2024-03-02T04:28:17;30.85;;;17.20;;
21860;SDS011;11095;48.066;8.540;2024-03-02T04:30:42;32.50;;;18.30;;
21860;SDS011;11095;48.066;8.540;2024-03-02T04:33:08;34.75;;;18.50;;
21860;SDS011;11095;48.066;8.540;2024-03-02T04:35:35;32.70;;;17.38;;
21860;SDS011;11095;48.066;8.540;2024-03-02T04:38:01;30.05;;;17.30;;
21860;SDS011;11095;48.066;8.540;2024-03-02T04:40:26;28.77;;;17.05;;
21860;SDS011;11095;48.066;8.540;2024-03-02T04:42:52;28.88;;;15.70;;
21860;SDS011;11095;48.066;8.540;2024-03-02T04:45:18;28.27;;;16.13;;
21860;SDS011;11095;48.066;8.540;2024-03-02T04:47:43;27.88;;;15.80;;
21860;SDS011;11095;48.066;8.540;2024-03-02T04:50:09;28.88;;;16.00;;
21860;SDS011;11095;48.066;8.540;2024-03-02T04:52:35;29.48;;;15.88;;
21860;SDS011;11095;48.066;8.540;2024-03-02T04:55:01;28.13;;;16.05;;
21860;SDS011;11095;48.066;8.540;2024-03-02T04:57:36;29.77;;;15.85;;
21860;SDS011;11095;48.066;8.540;2024-03-02T05:00:01;28.85;;;16.17;;
21860;SDS011;11095;48.066;8.540;2024-03-02T05:02:31;29.75;;;16.42;;
21860;SDS011;11095;48.066;8.540;2024-03-02T05:04:57;28.73;;;15.98;;
21860;SDS011;11095;48.066;8.540;2024-03-02T05:07:23;30.80;;;16.83;;
21860;SDS011;11095;48.066;8.540;2024-03-02T05:09:48;30.35;;;17.38;;
21860;SDS011;11095;48.066;8.540;2024-03-02T05:12:14;32.97;;;17.75;;
21860;SDS011;11095;48.066;8.540;2024-03-02T05:15:14;28.23;;;16.48;;
21860;SDS011;11095;48.066;8.540;2024-03-02T05:17:40;28.23;;;16.63;;
21860;SDS011;11095;48.066;8.540;2024-03-02T05:20:09;29.52;;;15.95;;
21860;SDS011;11095;48.066;8.540;2024-03-02T05:22:35;32.30;;;17.40;;
21860;SDS011;11095;48.066;8.540;2024-03-02T05:25:02;28.92;;;15.68;;
21860;SDS011;11095;48.066;8.540;2024-03-02T05:27:29;30.15;;;17.58;;
21860;SDS011;11095;48.066;8.540;2024-03-02T05:29:55;30.45;;;17.17;;
21860;SDS011;11095;48.066;8.540;2024-03-02T05:32:20;29.70;;;16.70;;
21860;SDS011;11095;48.066;8.540;2024-03-02T05:34:46;32.08;;;16.77;;
21860;SDS011;11095;48.066;8.540;2024-03-02T05:37:12;32.72;;;18.75;;
21860;SDS011;11095;48.066;8.540;2024-03-02T05:39:37;32.42;;;17.85;;
21860;SDS011;11095;48.066;8.540;2024-03-02T05:42:03;29.02;;;16.65;;
21860;SDS011;11095;48.066;8.540;2024-03-02T05:44:29;34.83;;;18.75;;
21860;SDS011;11095;48.066;8.540;2024-03-02T05:46:55;30.55;;;16.55;;
21860;SDS011;11095;48.066;8.540;2024-03-02T05:49:20;30.60;;;16.92;;
21860;SDS011;11095;48.066;8.540;2024-03-02T05:51:46;34.17;;;18.63;;
21860;SDS011;11095;48.066;8.540;2024-03-02T05:54:12;32.85;;;17.85;;
21860;SDS011;11095;48.066;8.540;2024-03-02T05:56:38;34.28;;;18.25;;
21860;SDS011;11095;48.066;8.540;2024-03-02T05:59:03;34.97;;;18.83;;
21860;SDS011;11095;48.066;8.540;2024-03-02T06:01:46;37.47;;;19.25;;
21860;SDS011;11095;48.066;8.540;2024-03-02T06:04:13;35.55;;;18.40;;
21860;SDS011;11095;48.066;8.540;2024-03-02T06:06:39;34.17;;;18.15;;
21860;SDS011;11095;48.066;8.540;2024-03-02T06:09:05;31.83;;;17.73;;
21860;SDS011;11095;48.066;8.540;2024-03-02T06:11:35;33.30;;;18.23;;
21860;SDS011;11095;48.066;8.540;2024-03-02T06:14:05;30.58;;;17.20;;
21860;SDS011;11095;48.066;8.540;2024-03-02T06:16:32;30.95;;;16.83;;
21860;SDS011;11095;48.066;8.540;2024-03-02T06:18:58;32.58;;;17.77;;
21860;SDS011;11095;48.066;8.540;2024-03-02T06:21:24;33.72;;;18.05;;
21860;SDS011;11095;48.066;8.540;2024-03-02T06:23:50;33.58;;;18.08;;
21860;SDS011;11095;48.066;8.540;2024-03-02T06:26:15;31.17;;;16.33;;
21860;SDS011;11095;48.066;8.540;2024-03-02T06:28:41;31.60;;;16.38;;
21860;SDS011;11095;48.066;8.540;2024-03-02T06:31:07;29.52;;;15.80;;
21860;SDS011;11095;48.066;8.540;2024-03-02T06:33:33;31.75;;;16.90;;
21860;SDS011;11095;48.066;8.540;2024-03-02T06:35:59;30.52;;;15.45;;
21860;SDS011;11095;48.066;8.540;2024-03-02T06:38:25;31.67;;;16.50;;
21860;SDS011;11095;48.066;8.540;2024-03-02T06:40:51;28.80;;;16.17;;
21860;SDS011;11095;48.066;8.540;2024-03-02T06:43:16;31.33;;;17.17;;
21860;SDS011;11095;48.066;8.540;2024-03-02T06:45:42;28.88;;;15.82;;
21860;SDS011;11095;48.066;8.540;2024-03-02T06:48:07;29.05;;;16.23;;
21860;SDS011;11095;48.066;8.540;2024-03-02T06:50:33;26.55;;;15.73;;
21860;SDS011;11095;48.066;8.540;2024-03-02T06:52:58;28.40;;;16.00;;
21860;SDS011;11095;48.066;8.540;2024-03-02T06:55:24;29.85;;;16.25;;
21860;SDS011;11095;48.066;8.540;2024-03-02T06:57:50;31.00;;;16.80;;
21860;SDS011;11095;48.066;8.540;2024-03-02T07:00:16;33.53;;;17.88;;
21860;SDS011;11095;48.066;8.540;2024-03-02T07:02:43;34.30;;;18.52;;
21860;SDS011;11095;48.066;8.540;2024-03-02T07:05:09;23.15;;;14.10;;
21860;SDS011;11095;48.066;8.540;2024-03-02T07:07:36;17.70;;;11.88;;
21860;SDS011;11095;48.066;8.540;2024-03-02T07:10:02;15.18;;;10.65;;
21860;SDS011;11095;48.066;8.540;2024-03-02T07:12:32;13.30;;;9.73;;
21860;SDS011;11095;48.066;8.540;2024-03-02T07:14:58;10.63;;;8.63;;
21860;SDS011;11095;48.066;8.540;2024-03-02T07:17:29;12.05;;;9.05;;
21860;SDS011;11095;48.066;8.540;2024-03-02T07:19:56;11.43;;;8.77;;
21860;SDS011;11095;48.066;8.540;2024-03-02T07:22:22;11.20;;;8.85;;
21860;SDS011;11095;48.066;8.540;2024-03-02T07:24:48;10.38;;;8.32;;
21860;SDS011;11095;48.066;8.540;2024-03-02T07:27:14;10.05;;;8.38;;
21860;SDS011;11095;48.066;8.540;2024-03-02T07:29:41;9.45;;;8.00;;
21860;SDS011;11095;48.066;8.540;2024-03-02T07:32:07;11.35;;;9.15;;
21860;SDS011;11095;48.066;8.540;2024-03-02T07:34:33;11.13;;;8.82;;
21860;SDS011;11095;48.066;8.540;2024-03-02T07:36:59;10.93;;;9.23;;
21860;SDS011;11095;48.066;8.540;2024-03-02T07:39:25;10.43;;;8.95;;
21860;SDS011;11095;48.066;8.540;2024-03-02T07:41:51;8.05;;;7.25;;
21860;SDS011;11095;48.066;8.540;2024-03-02T07:44:16;9.70;;;8.70;;
21860;SDS011;11095;48.066;8.540;2024-03-02T07:46:44;9.73;;;8.45;;
21860;SDS011;11095;48.066;8.540;2024-03-02T07:49:20;8.95;;;7.88;;
21860;SDS011;11095;48.066;8.540;2024-03-02T07:51:46;8.18;;;7.38;;
21860;SDS011;11095;48.066;8.540;2024-03-02T07:54:11;10.68;;;9.30;;
21860;SDS011;11095;48.066;8.540;2024-03-02T07:56:37;9.70;;;8.52;;
21860;SDS011;11095;48.066;8.540;2024-03-02T07:59:03;8.27;;;7.43;;
21860;SDS011;11095;48.066;8.540;2024-03-02T08:01:29;8.05;;;7.15;;
21860;SDS011;11095;48.066;8.540;2024-03-02T08:03:56;8.68;;;7.78;;
21860;SDS011;11095;48.066;8.540;2024-03-02T08:06:26;9.18;;;7.80;;
21860;SDS011;11095;48.066;8.540;2024-03-02T08:08:59;9.05;;;7.85;;
21860;SDS011;11095;48.066;8.540;2024-03-02T08:11:26;8.43;;;7.50;;
21860;SDS011;11095;48.066;8.540;2024-03-02T08:13:56;8.02;;;7.00;;
21860;SDS011;11095;48.066;8.540;2024-03-02T08:16:24;7.45;;;6.68;;
21860;SDS011;11095;48.066;8.540;2024-03-02T08:18:50;8.35;;;7.50;;
21860;SDS011;11095;48.066;8.540;2024-03-02T08:21:16;8.35;;;7.55;;
21860;SDS011;11095;48.066;8.540;2024-03-02T08:23:42;8.40;;;7.28;;
21860;SDS011;11095;48.066;8.540;2024-03-02T08:26:09;7.55;;;6.75;;
21860;SDS011;11095;48.066;8.540;2024-03-02T08:28:35;8.18;;;6.80;;
21860;SDS011;11095;48.066;8.540;2024-03-02T08:31:02;8.40;;;7.22;;
21860;SDS011;11095;48.066;8.540;2024-03-02T08:33:31;7.95;;;7.15;;
21860;SDS011;11095;48.066;8.540;2024-03-02T08:35:56;7.45;;;6.75;;
21860;SDS011;11095;48.066;8.540;2024-03-02T08:38:22;8.23;;;7.43;;
21860;SDS011;11095;48.066;8.540;2024-03-02T08:40:48;7.60;;;6.82;;
21860;SDS011;11095;48.066;8.540;2024-03-02T08:43:14;7.07;;;6.38;;
21860;SDS011;11095;48.066;8.540;2024-03-02T08:45:40;7.28;;;6.57;;
21860;SDS011;11095;48.066;8.540;2024-03-02T08:48:07;7.38;;;6.55;;
21860;SDS011;11095;48.066;8.540;2024-03-02T08:50:33;6.93;;;6.03;;
21860;SDS011;11095;48.066;8.540;2024-03-02T08:52:59;6.80;;;5.80;;
21860;SDS011;11095;48.066;8.540;2024-03-02T08:55:25;7.13;;;6.00;;
21860;SDS011;11095;48.066;8.540;2024-03-02T08:57:50;6.18;;;5.28;;
21860;SDS011;11095;48.066;8.540;2024-03-02T09:00:17;6.15;;;5.55;;
21860;SDS011;11095;48.066;8.540;2024-03-02T09:02:44;7.78;;;5.50;;
21860;SDS011;11095;48.066;8.540;2024-03-02T09:05:10;6.18;;;5.40;;
21860;SDS011;11095;48.066;8.540;2024-03-02T09:07:35;5.50;;;4.93;;
21860;SDS011;11095;48.066;8.540;2024-03-02T09:10:01;4.90;;;4.40;;
21860;SDS011;11095;48.066;8.540;2024-03-02T09:12:26;5.72;;;4.88;;
21860;SDS011;11095;48.066;8.540;2024-03-02T09:14:52;6.90;;;5.20;;
21860;SDS011;11095;48.066;8.540;2024-03-02T09:17:17;6.28;;;5.07;;
21860;SDS011;11095;48.066;8.540;2024-03-02T09:19:43;6.68;;;4.72;;
21860;SDS011;11095;48.066;8.540;2024-03-02T09:22:08;6.03;;;4.85;;
21860;SDS011;11095;48.066;8.540;2024-03-02T09:24:34;5.32;;;4.70;;
21860;SDS011;11095;48.066;8.540;2024-03-02T09:27:00;6.85;;;4.65;;
21860;SDS011;11095;48.066;8.540;2024-03-02T09:29:26;6.13;;;5.20;;
21860;SDS011;11095;48.066;8.540;2024-03-02T09:31:51;6.30;;;4.80;;
21860;SDS011;11095;48.066;8.540;2024-03-02T09:34:17;6.22;;;4.70;;
21860;SDS011;11095;48.066;8.540;2024-03-02T09:36:43;6.05;;;5.30;;
21860;SDS011;11095;48.066;8.540;2024-03-02T09:39:09;5.82;;;5.20;;
21860;SDS011;11095;48.066;8.540;2024-03-02T09:41:35;6.25;;;5.43;;
21860;SDS011;11095;48.066;8.540;2024-03-02T09:44:02;5.60;;;5.00;;
21860;SDS011;11095;48.066;8.540;2024-03-02T09:46:28;5.00;;;4.30;;
21860;SDS011;11095;48.066;8.540;2024-03-02T09:48:54;4.95;;;4.43;;
21860;SDS011;11095;48.066;8.540;2024-03-02T09:51:19;5.90;;;4.50;;
21860;SDS011;11095;48.066;8.540;2024-03-02T09:53:45;6.35;;;5.00;;
21860;SDS011;11095;48.066;8.540;2024-03-02T09:56:11;5.40;;;4.60;;
21860;SDS011;11095;48.066;8.540;2024-03-02T09:58:38;5.75;;;4.85;;
21860;SDS011;11095;48.066;8.540;2024-03-02T10:01:07;5.60;;;4.65;;
21860;SDS011;11095;48.066;8.540;2024-03-02T10:03:33;6.30;;;5.22;;
21860;SDS011;11095;48.066;8.540;2024-03-02T10:08:47;7.18;;;5.88;;
21860;SDS011;11095;48.066;8.540;2024-03-02T10:11:29;6.25;;;5.30;;
21860;SDS011;11095;48.066;8.540;2024-03-02T10:14:09;4.30;;;3.72;;
21860;SDS011;11095;48.066;8.540;2024-03-02T10:16:37;5.35;;;4.30;;
21860;SDS011;11095;48.066;8.540;2024-03-02T10:22:00;4.95;;;4.03;;
21860;SDS011;11095;48.066;8.540;2024-03-02T10:24:27;5.20;;;4.00;;
21860;SDS011;11095;48.066;8.540;2024-03-02T10:26:59;5.13;;;4.28;;
21860;SDS011;11095;48.066;8.540;2024-03-02T10:29:25;5.53;;;4.45;;
21860;SDS011;11095;48.066;8.540;2024-03-02T10:31:53;4.55;;;3.88;;
21860;SDS011;11095;48.066;8.540;2024-03-02T10:34:19;5.45;;;4.55;;
21860;SDS011;11095;48.066;8.540;2024-03-02T10:36:46;4.93;;;4.13;;
21860;SDS011;11095;48.066;8.540;2024-03-02T10:39:12;4.68;;;3.95;;
21860;SDS011;11095;48.066;8.540;2024-03-02T10:41:39;4.55;;;3.90;;
21860;SDS011;11095;48.066;8.540;2024-03-02T10:44:08;4.75;;;3.97;;
21860;SDS011;11095;48.066;8.540;2024-03-02T10:46:35;5.13;;;4.57;;
21860;SDS011;11095;48.066;8.540;2024-03-02T10:49:02;4.35;;;3.53;;
21860;SDS011;11095;48.066;8.540;2024-03-02T10:51:31;3.40;;;3.00;;
21860;SDS011;11095;48.066;8.540;2024-03-02T10:53:58;3.72;;;2.42;;
21860;SDS011;11095;48.066;8.540;2024-03-02T10:56:32;2.45;;;2.25;;
21860;SDS011;11095;48.066;8.540;2024-03-02T11:01:59;2.70;;;2.25;;
21860;SDS011;11095;48.066;8.540;2024-03-02T11:06:52;3.17;;;2.20;;
21860;SDS011;11095;48.066;8.540;2024-03-02T11:09:24;2.45;;;2.08;;
21860;SDS011;11095;48.066;8.540;2024-03-02T11:12:15;3.27;;;2.10;;
21860;SDS011;11095;48.066;8.540;2024-03-02T11:14:41;2.42;;;1.73;;
21860;SDS011;11095;48.066;8.540;2024-03-02T11:17:10;2.10;;;1.90;;
21860;SDS011;11095;48.066;8.540;2024-03-02T11:19:38;2.58;;;2.10;;
21860;SDS011;11095;48.066;8.540;2024-03-02T11:22:04;2.28;;;1.90;;
21860;SDS011;11095;48.066;8.540;2024-03-02T11:24:30;2.58;;;1.85;;
21860;SDS011;11095;48.066;8.540;2024-03-02T11:27:00;2.28;;;1.70;;
21860;SDS011;11095;48.066;8.540;2024-03-02T11:32:02;2.58;;;2.30;;
21860;SDS011;11095;48.066;8.540;2024-03-02T11:34:29;3.08;;;2.50;;
21860;SDS011;11095;48.066;8.540;2024-03-02T11:36:56;3.22;;;2.45;;
21860;SDS011;11095;48.066;8.540;2024-03-02T11:39:22;2.80;;;2.50;;
21860;SDS011;11095;48.066;8.540;2024-03-02T11:41:48;3.92;;;2.55;;
21860;SDS011;11095;48.066;8.540;2024-03-02T11:44:14;3.35;;;2.60;;
21860;SDS011;11095;48.066;8.540;2024-03-02T11:46:41;3.42;;;2.50;;
21860;SDS011;11095;48.066;8.540;2024-03-02T11:49:06;3.00;;;2.20;;
21860;SDS011;11095;48.066;8.540;2024-03-02T11:51:33;4.07;;;2.60;;
21860;SDS011;11095;48.066;8.540;2024-03-02T11:54:00;3.92;;;2.60;;
21860;SDS011;11095;48.066;8.540;2024-03-02T11:56:27;2.40;;;2.20;;
21860;SDS011;11095;48.066;8.540;2024-03-02T11:58:55;2.67;;;2.35;;
21860;SDS011;11095;48.066;8.540;2024-03-02T12:01:23;2.63;;;2.28;;
21860;SDS011;11095;48.066;8.540;2024-03-02T12:03:48;3.63;;;2.85;;
21860;SDS011;11095;48.066;8.540;2024-03-02T12:06:14;3.10;;;2.50;;
21860;SDS011;11095;48.066;8.540;2024-03-02T12:08:40;2.55;;;2.35;;
21860;SDS011;11095;48.066;8.540;2024-03-02T12:11:06;3.20;;;2.30;;
21860;SDS011;11095;48.066;8.540;2024-03-02T12:13:31;2.55;;;2.10;;
21860;SDS011;11095;48.066;8.540;2024-03-02T12:15:58;2.60;;;1.90;;
21860;SDS011;11095;48.066;8.540;2024-03-02T12:18:24;3.47;;;2.22;;
21860;SDS011;11095;48.066;8.540;2024-03-02T12:20:50;2.60;;;2.03;;
21860;SDS011;11095;48.066;8.540;2024-03-02T12:23:27;2.33;;;1.80;;
21860;SDS011;11095;48.066;8.540;2024-03-02T12:25:53;2.60;;;1.73;;
21860;SDS011;11095;48.066;8.540;2024-03-02T12:28:19;1.88;;;1.67;;
21860;SDS011;11095;48.066;8.540;2024-03-02T12:30:44;2.40;;;1.85;;
21860;SDS011;11095;48.066;8.540;2024-03-02T12:33:12;1.95;;;1.50;;
21860;SDS011;11095;48.066;8.540;2024-03-02T12:35:38;2.30;;;1.77;;
21860;SDS011;11095;48.066;8.540;2024-03-02T12:38:05;3.75;;;1.92;;
21860;SDS011;11095;48.066;8.540;2024-03-02T12:40:31;2.38;;;1.70;;
21860;SDS011;11095;48.066;8.540;2024-03-02T12:42:56;1.98;;;1.73;;
21860;SDS011;11095;48.066;8.540;2024-03-02T12:45:22;1.65;;;1.55;;
21860;SDS011;11095;48.066;8.540;2024-03-02T12:47:50;2.67;;;1.83;;
21860;SDS011;11095;48.066;8.540;2024-03-02T12:50:17;2.10;;;1.90;;
21860;SDS011;11095;48.066;8.540;2024-03-02T12:52:43;2.70;;;1.88;;
21860;SDS011;11095;48.066;8.540;2024-03-02T12:55:09;2.10;;;1.80;;
21860;SDS011;11095;48.066;8.540;2024-03-02T12:57:35;2.45;;;1.55;;
21860;SDS011;11095;48.066;8.540;2024-03-02T13:00:01;1.83;;;1.63;;
21860;SDS011;11095;48.066;8.540;2024-03-02T13:02:34;2.63;;;1.60;;
21860;SDS011;11095;48.066;8.540;2024-03-02T13:05:00;2.00;;;1.65;;
21860;SDS011;11095;48.066;8.540;2024-03-02T13:07:26;2.15;;;1.42;;
21860;SDS011;11095;48.066;8.540;2024-03-02T13:09:52;1.95;;;1.42;;
21860;SDS011;11095;48.066;8.540;2024-03-02T13:12:20;2.03;;;1.58;;
21860;SDS011;11095;48.066;8.540;2024-03-02T13:14:51;2.47;;;1.60;;
21860;SDS011;11095;48.066;8.540;2024-03-02T13:17:17;2.20;;;1.70;;
21860;SDS011;11095;48.066;8.540;2024-03-02T13:19:56;2.75;;;1.23;;
21860;SDS011;11095;48.066;8.540;2024-03-02T13:22:23;1.40;;;1.30;;
21860;SDS011;11095;48.066;8.540;2024-03-02T13:24:50;1.75;;;1.50;;
21860;SDS011;11095;48.066;8.540;2024-03-02T13:27:16;2.03;;;1.80;;
21860;SDS011;11095;48.066;8.540;2024-03-02T13:29:44;2.20;;;1.70;;
21860;SDS011;11095;48.066;8.540;2024-03-02T13:32:13;2.25;;;1.83;;
21860;SDS011;11095;48.066;8.540;2024-03-02T13:34:39;2.15;;;1.80;;
21860;SDS011;11095;48.066;8.540;2024-03-02T13:37:06;2.33;;;1.90;;
21860;SDS011;11095;48.066;8.540;2024-03-02T13:39:32;2.08;;;1.80;;
21860;SDS011;11095;48.066;8.540;2024-03-02T13:41:59;2.17;;;1.92;;
21860;SDS011;11095;48.066;8.540;2024-03-02T13:44:30;2.20;;;1.60;;
21860;SDS011;11095;48.066;8.540;2024-03-02T13:46:56;2.83;;;1.85;;
21860;SDS011;11095;48.066;8.540;2024-03-02T13:49:23;2.67;;;1.60;;
21860;SDS011;11095;48.066;8.540;2024-03-02T13:51:49;2.40;;;1.88;;
21860;SDS011;11095;48.066;8.540;2024-03-02T13:54:15;2.85;;;2.42;;
21860;SDS011;11095;48.066;8.540;2024-03-02T13:56:40;3.33;;;2.10;;
21860;SDS011;11095;48.066;8.540;2024-03-02T13:59:06;2.70;;;1.85;;
21860;SDS011;11095;48.066;8.540;2024-03-02T14:01:33;2.03;;;1.65;;
21860;SDS011;11095;48.066;8.540;2024-03-02T14:03:59;2.63;;;2.00;;
21860;SDS011;11095;48.066;8.540;2024-03-02T14:06:24;2.83;;;1.30;;
21860;SDS011;11095;48.066;8.540;2024-03-02T14:08:52;3.47;;;1.73;;
21860;SDS011;11095;48.066;8.540;2024-03-02T14:11:18;2.53;;;1.85;;
21860;SDS011;11095;48.066;8.540;2024-03-02T14:13:44;2.63;;;1.50;;
21860;SDS011;11095;48.066;8.540;2024-03-02T14:16:14;2.45;;;1.20;;
21860;SDS011;11095;48.066;8.540;2024-03-02T14:18:40;2.33;;;1.30;;
21860;SDS011;11095;48.066;8.540;2024-03-02T14:21:07;5.60;;;1.30;;
21860;SDS011;11095;48.066;8.540;2024-03-02T14:23:33;1.35;;;1.02;;
21860;SDS011;11095;48.066;8.540;2024-03-02T14:25:58;1.30;;;0.90;;
21860;SDS011;11095;48.066;8.540;2024-03-02T14:28:25;1.17;;;0.80;;
21860;SDS011;11095;48.066;8.540;2024-03-02T14:30:50;2.38;;;1.30;;
21860;SDS011;11095;48.066;8.540;2024-03-02T14:33:16;0.80;;;0.80;;
21860;SDS011;11095;48.066;8.540;2024-03-02T14:35:42;1.42;;;0.82;;
21860;SDS011;11095;48.066;8.540;2024-03-02T14:38:07;1.20;;;0.63;;
21860;SDS011;11095;48.066;8.540;2024-03-02T14:40:33;1.08;;;0.70;;
21860;SDS011;11095;48.066;8.540;2024-03-02T14:42:59;0.40;;;0.40;;
21860;SDS011;11095;48.066;8.540;2024-03-02T14:45:24;0.85;;;0.50;;
21860;SDS011;11095;48.066;8.540;2024-03-02T14:47:50;0.60;;;0.43;;